Time;durP1;ratioP1;P1;durP2;ratioP2;P2;SDS_P1;SDS_P2;PMS_P1;PMS_P2;Temp;Humidity;BMP_temperature;BMP_pressure;BME280_temperature;BME280_humidity;BME280_pressure;Samples;Min_cycle;Max_cycle;Signal;HPM_P1;HPM_P2
2023/06/23 00:00:28;;;;;;;;;;;17.20;90.90;;;;;;5074658;28;20340;-34
2023/06/23 00:02:56;;;;;;;;;;;17.20;90.90;;;;;;5074534;28;19912;-35
2023/06/23 00:05:22;;;;;;;;;;;17.30;90.90;;;;;;5074585;28;19912;-35
2023/06/23 00:07:47;;;;;;;;;;;17.30;90.90;;;;;;5074446;28;20019;-35
2023/06/23 00:10:13;;;;;;;;;;;17.20;90.80;;;;;;5074475;28;19917;-36
2023/06/23 00:12:41;;;;;;;;;;;17.30;91.00;;;;;;5074408;28;19956;-36
2023/06/23 00:15:11;;;;;;;;;;;17.20;90.90;;;;;;5074269;28;19918;-34
2023/06/23 00:17:37;;;;;;;;;;;17.20;90.90;;;;;;5074346;28;19912;-35
2023/06/23 00:20:07;;;;;;;;;;;17.20;90.90;;;;;;5074284;28;19951;-36
2023/06/23 00:22:32;;;;;;;;;;;17.20;90.90;;;;;;5074204;28;19916;-35
2023/06/23 00:24:58;;;;;;;;;;;17.20;90.90;;;;;;5074056;28;19923;-35
2023/06/23 00:27:23;;;;;;;;;;;17.10;90.90;;;;;;5074191;28;20392;-34
2023/06/23 00:29:49;;;;;;;;;;;17.10;90.90;;;;;;5073679;28;19916;-36
2023/06/23 00:32:14;;;;;;;;;;;17.10;90.90;;;;;;5056059;28;20376;-35
2023/06/23 00:34:40;;;;;;;;;;;17.10;90.90;;;;;;5074152;28;19912;-36
2023/06/23 00:37:05;;;;;;;;;;;17.10;90.80;;;;;;5056054;28;20327;-35
2023/06/23 00:39:31;;;;;;;;;;;17.10;90.90;;;;;;5074081;28;19912;-36
2023/06/23 00:42:00;;;;;;;;;;;17.10;90.80;;;;;;5073861;28;19913;-36
2023/06/23 00:44:26;;;;;;;;;;;17.00;90.80;;;;;;5073810;28;19935;-36
2023/06/23 00:46:52;;;;;;;;;;;17.00;90.80;;;;;;5073757;28;19912;-36
2023/06/23 00:49:18;;;;;;;;;;;17.00;90.80;;;;;;5073473;28;19917;-35
2023/06/23 00:51:44;;;;;;;;;;;17.00;90.80;;;;;;5073778;28;19939;-36
2023/06/23 00:54:09;;;;;;;;;;;17.00;90.80;;;;;;5055580;28;19915;-52
2023/06/23 00:56:35;;;;;;;;;;;17.00;90.80;;;;;;5073625;28;19909;-35
2023/06/23 00:59:03;;;;;;;;;;;17.00;90.80;;;;;;5073536;28;19909;-35
2023/06/23 01:01:31;;;;;;;;;;;17.00;90.80;;;;;;5073361;28;19908;-42
2023/06/23 01:03:59;;;;;;;;;;;16.90;90.70;;;;;;5055531;28;19909;-34
2023/06/23 01:06:25;;;;;;;;;;;16.90;90.70;;;;;;5073393;28;20007;-34
2023/06/23 01:08:54;;;;;;;;;;;16.90;90.70;;;;;;5073168;28;20376;-35
2023/06/23 01:11:23;;;;;;;;;;;16.90;90.70;;;;;;5055187;28;19908;-35
2023/06/23 01:13:49;;;;;;;;;;;16.90;90.70;;;;;;5073102;28;20062;-35
2023/06/23 01:16:17;;;;;;;;;;;16.80;90.70;;;;;;5073280;28;19956;-36
2023/06/23 01:18:49;;;;;;;;;;;16.80;90.70;;;;;;5073223;28;19908;-35
2023/06/23 01:21:16;;;;;;;;;;;16.80;90.70;;;;;;5073091;28;20282;-35
2023/06/23 01:23:53;;;;;;;;;;;16.80;90.70;;;;;;5073406;28;19908;-36
2023/06/23 01:26:31;;;;;;;;;;;16.80;90.70;;;;;;5072754;28;19925;-36
2023/06/23 01:29:01;;;;;;;;;;;16.80;90.70;;;;;;5072896;28;19962;-36
2023/06/23 01:31:45;;;;;;;;;;;16.80;90.70;;;;;;5072941;28;19909;-37
2023/06/23 01:34:16;;;;;;;;;;;16.70;90.70;;;;;;5072867;28;19909;-34
2023/06/23 01:36:43;;;;;;;;;;;16.70;90.70;;;;;;5072831;28;19908;-36
2023/06/23 01:39:11;;;;;;;;;;;16.70;90.70;;;;;;5072673;28;20387;-34
2023/06/23 01:41:43;;;;;;;;;;;16.70;90.70;;;;;;5054113;28;19915;-34
2023/06/23 01:44:14;;;;;;;;;;;16.70;90.70;;;;;;5072677;28;19908;-35
2023/06/23 01:46:41;;;;;;;;;;;16.70;90.70;;;;;;5072831;28;19908;-36
2023/06/23 01:49:10;;;;;;;;;;;16.70;90.70;;;;;;5072900;28;19936;-35
2023/06/23 01:51:37;;;;;;;;;;;16.70;90.70;;;;;;5072554;28;20359;-36
2023/06/23 01:54:03;;;;;;;;;;;16.70;90.70;;;;;;5072533;28;20367;-36
2023/06/23 01:56:29;;;;;;;;;;;16.70;90.70;;;;;;5072465;28;19909;-35
2023/06/23 01:58:55;;;;;;;;;;;16.70;90.70;;;;;;5072582;28;19912;-35
2023/06/23 02:01:22;;;;;;;;;;;16.70;90.70;;;;;;5054391;28;19914;-36
2023/06/23 02:03:48;;;;;;;;;;;16.60;90.60;;;;;;5072399;28;19909;-36
2023/06/23 02:06:14;;;;;;;;;;;16.60;90.60;;;;;;5072381;28;19908;-36
2023/06/23 02:08:40;;;;;;;;;;;16.60;90.60;;;;;;5072365;28;19920;-36
2023/06/23 02:11:06;;;;;;;;;;;16.60;90.60;;;;;;5072349;28;19909;-36
2023/06/23 02:13:31;;;;;;;;;;;16.60;90.70;;;;;;5072347;28;19908;-35
2023/06/23 02:15:58;;;;;;;;;;;16.60;90.60;;;;;;5072191;28;20371;-34
2023/06/23 02:18:24;;;;;;;;;;;16.60;90.70;;;;;;5072382;28;19916;-35
2023/06/23 02:20:51;;;;;;;;;;;16.60;90.70;;;;;;5072343;28;19965;-35
2023/06/23 02:23:18;;;;;;;;;;;16.60;90.90;;;;;;5072180;28;19916;-35
2023/06/23 02:25:43;;;;;;;;;;;16.60;90.60;;;;;;5072080;28;20398;-36
2023/06/23 02:28:10;;;;;;;;;;;16.50;90.60;;;;;;5072145;28;19908;-35
2023/06/23 02:30:36;;;;;;;;;;;16.50;90.70;;;;;;5072172;28;19919;-37
2023/06/23 02:33:02;;;;;;;;;;;16.50;90.70;;;;;;5072023;28;19909;-36
2023/06/23 02:35:27;;;;;;;;;;;16.50;90.60;;;;;;5072113;28;19947;-35
2023/06/23 02:37:55;;;;;;;;;;;16.50;90.70;;;;;;5072114;28;19908;-36
2023/06/23 02:40:21;;;;;;;;;;;16.50;90.70;;;;;;5072284;28;20264;-36
2023/06/23 02:42:53;;;;;;;;;;;16.50;90.70;;;;;;5072060;28;19985;-36
2023/06/23 02:45:22;;;;;;;;;;;16.50;90.70;;;;;;5072335;28;19916;-35
2023/06/23 02:47:49;;;;;;;;;;;16.40;90.70;;;;;;5071976;28;19909;-35
2023/06/23 02:50:16;;;;;;;;;;;16.40;90.70;;;;;;5071901;28;19916;-35
2023/06/23 02:52:44;;;;;;;;;;;16.50;90.70;;;;;;5074989;28;19963;-35
2023/06/23 02:55:10;;;;;;;;;;;16.40;90.70;;;;;;5076029;28;20461;-35
2023/06/23 02:57:37;;;;;;;;;;;16.40;90.70;;;;;;5075988;28;19944;-37
2023/06/23 03:00:12;;;;;;;;;;;16.40;90.70;;;;;;5075875;28;19909;-36
2023/06/23 03:02:40;;;;;;;;;;;16.40;90.70;;;;;;5075804;28;20556;-36
2023/06/23 03:05:06;;;;;;;;;;;16.40;90.70;;;;;;5075846;28;20042;-36
2023/06/23 03:07:32;;;;;;;;;;;16.40;90.80;;;;;;5075649;28;19908;-35
2023/06/23 03:09:58;;;;;;;;;;;16.40;90.70;;;;;;5075581;28;19956;-38
2023/06/23 03:12:23;;;;;;;;;;;16.40;90.70;;;;;;5075722;28;19981;-35
2023/06/23 03:14:49;;;;;;;;;;;16.40;90.80;;;;;;5057666;28;20009;-35
2023/06/23 03:17:17;;;;;;;;;;;16.40;90.70;;;;;;5075573;28;20318;-36
2023/06/23 03:19:46;;;;;;;;;;;16.40;90.70;;;;;;5075596;28;19916;-36
2023/06/23 03:22:14;;;;;;;;;;;16.40;90.80;;;;;;5075366;28;20375;-36
2023/06/23 03:24:41;;;;;;;;;;;16.40;90.80;;;;;;5075153;28;19912;-36
2023/06/23 03:27:07;;;;;;;;;;;16.40;90.80;;;;;;5075303;28;19916;-36
2023/06/23 03:29:36;;;;;;;;;;;16.40;90.80;;;;;;5075229;28;19912;-36
2023/06/23 03:32:03;;;;;;;;;;;16.40;90.80;;;;;;5057297;28;19916;-34
2023/06/23 03:34:34;;;;;;;;;;;16.30;90.80;;;;;;5075218;28;20368;-36
2023/06/23 03:37:01;;;;;;;;;;;16.40;90.80;;;;;;5075159;28;19955;-35
2023/06/23 03:39:28;;;;;;;;;;;16.40;90.90;;;;;;5075287;28;19909;-35
2023/06/23 03:41:54;;;;;;;;;;;16.40;90.80;;;;;;5057015;28;19959;-36
2023/06/23 03:44:24;;;;;;;;;;;16.40;90.80;;;;;;5074985;28;19915;-34
2023/06/23 03:46:55;;;;;;;;;;;16.40;91.00;;;;;;5056916;28;19989;-35
2023/06/23 03:49:24;;;;;;;;;;;16.30;90.90;;;;;;5075239;28;20375;-34
2023/06/23 03:51:52;;;;;;;;;;;16.30;90.90;;;;;;5074938;28;19974;-35
2023/06/23 03:54:18;;;;;;;;;;;16.30;91.00;;;;;;5074836;28;19953;-34
2023/06/23 03:56:45;;;;;;;;;;;16.30;91.00;;;;;;5056872;28;19939;-34
2023/06/23 03:59:11;;;;;;;;;;;16.30;91.00;;;;;;5074900;28;19908;-35
2023/06/23 04:01:38;;;;;;;;;;;16.30;91.10;;;;;;5074697;28;19909;-35
2023/06/23 04:04:04;;;;;;;;;;;16.20;91.00;;;;;;5073919;28;19913;-36
2023/06/23 04:06:30;;;;;;;;;;;16.20;91.00;;;;;;5074633;28;19908;-35
2023/06/23 04:08:57;;;;;;;;;;;16.30;91.20;;;;;;5056498;28;19920;-35
2023/06/23 04:11:23;;;;;;;;;;;16.30;91.10;;;;;;5074569;28;20000;-36
2023/06/23 04:13:50;;;;;;;;;;;16.30;91.10;;;;;;5074670;28;20403;-35
2023/06/23 04:16:16;;;;;;;;;;;16.30;91.00;;;;;;5074414;28;19966;-36
2023/06/23 04:18:42;;;;;;;;;;;16.30;91.10;;;;;;5074396;28;19909;-36
2023/06/23 04:21:08;;;;;;;;;;;16.30;91.00;;;;;;5074405;28;19979;-36
2023/06/23 04:23:34;;;;;;;;;;;16.30;91.00;;;;;;5074278;28;19943;-36
2023/06/23 04:26:01;;;;;;;;;;;16.30;91.00;;;;;;5074133;28;19976;-36
2023/06/23 04:28:28;;;;;;;;;;;16.30;91.10;;;;;;5074183;28;19955;-37
2023/06/23 04:30:55;;;;;;;;;;;16.40;91.10;;;;;;5074002;28;19912;-36
2023/06/23 04:33:20;;;;;;;;;;;16.30;91.00;;;;;;5074288;28;20382;-36
2023/06/23 04:35:49;;;;;;;;;;;16.40;91.10;;;;;;5074181;28;19908;-35
2023/06/23 04:38:15;;;;;;;;;;;16.40;91.00;;;;;;5074035;28;19912;-36
2023/06/23 04:40:44;;;;;;;;;;;16.40;91.10;;;;;;5074002;28;20042;-36
2023/06/23 04:43:13;;;;;;;;;;;16.40;91.10;;;;;;5073975;28;19982;-36
2023/06/23 04:45:45;;;;;;;;;;;16.40;91.30;;;;;;5073964;28;19955;-37
2023/06/23 04:48:12;;;;;;;;;;;16.40;91.10;;;;;;5073956;28;19912;-36
2023/06/23 04:50:38;;;;;;;;;;;16.40;91.10;;;;;;5073634;28;20003;-37
2023/06/23 04:53:06;;;;;;;;;;;16.50;91.10;;;;;;5055595;28;20698;-36
2023/06/23 04:55:33;;;;;;;;;;;16.50;91.10;;;;;;5074336;28;20279;-35
2023/06/23 04:57:59;;;;;;;;;;;16.50;91.10;;;;;;5073541;28;19939;-35
2023/06/23 05:00:25;;;;;;;;;;;16.50;91.10;;;;;;5073662;28;20406;-36
2023/06/23 05:02:52;;;;;;;;;;;16.60;91.10;;;;;;5073363;28;20288;-37
2023/06/23 05:05:21;;;;;;;;;;;16.70;91.10;;;;;;5073363;28;19908;-36
2023/06/23 05:07:48;;;;;;;;;;;16.80;91.10;;;;;;5073351;28;20368;-35
2023/06/23 05:10:14;;;;;;;;;;;16.70;91.10;;;;;;5073184;28;19913;-35
2023/06/23 05:12:40;;;;;;;;;;;16.80;91.10;;;;;;5073263;28;20365;-36
2023/06/23 05:15:07;;;;;;;;;;;16.80;91.10;;;;;;5054555;28;19909;-36
2023/06/23 05:17:35;;;;;;;;;;;16.90;91.10;;;;;;5073207;28;19947;-36
2023/06/23 05:20:01;;;;;;;;;;;17.00;91.00;;;;;;5073194;28;19915;-35
2023/06/23 05:22:27;;;;;;;;;;;17.00;91.30;;;;;;5073039;28;19908;-36
2023/06/23 05:24:54;;;;;;;;;;;17.00;91.10;;;;;;5072832;28;19989;-35
2023/06/23 05:27:22;;;;;;;;;;;17.10;91.00;;;;;;5072999;28;19922;-35
2023/06/23 05:29:48;;;;;;;;;;;17.10;91.00;;;;;;5072829;28;19912;-37
2023/06/23 05:32:16;;;;;;;;;;;17.20;91.40;;;;;;5072919;28;20245;-36
2023/06/23 05:34:42;;;;;;;;;;;17.20;91.20;;;;;;5073055;28;19908;-36
2023/06/23 05:37:08;;;;;;;;;;;17.20;91.20;;;;;;5072776;28;19908;-36
2023/06/23 05:39:35;;;;;;;;;;;17.20;91.40;;;;;;5072752;28;19916;-35
2023/06/23 05:42:00;;;;;;;;;;;17.20;91.50;;;;;;5073022;28;20233;-35
2023/06/23 05:44:26;;;;;;;;;;;17.30;91.40;;;;;;5072608;28;19909;-34
2023/06/23 05:46:56;;;;;;;;;;;17.30;91.60;;;;;;5072631;28;19909;-35
2023/06/23 05:49:23;;;;;;;;;;;17.30;91.40;;;;;;5072403;28;19912;-36
2023/06/23 05:51:53;;;;;;;;;;;17.40;91.40;;;;;;5072608;28;19909;-36
2023/06/23 05:54:20;;;;;;;;;;;17.40;91.40;;;;;;5072417;28;19916;-36
2023/06/23 05:56:50;;;;;;;;;;;17.50;91.60;;;;;;5072644;28;20356;-36
2023/06/23 05:59:20;;;;;;;;;;;17.50;91.60;;;;;;5072323;28;20298;-35
2023/06/23 06:01:48;;;;;;;;;;;17.60;91.50;;;;;;5072361;28;19930;-34
2023/06/23 06:04:16;;;;;;;;;;;17.60;91.50;;;;;;5072345;28;19916;-36
2023/06/23 06:06:42;;;;;;;;;;;17.70;91.50;;;;;;5072234;28;20400;-35
2023/06/23 06:09:09;;;;;;;;;;;17.70;91.60;;;;;;5072222;28;19948;-36
2023/06/23 06:11:35;;;;;;;;;;;17.70;91.50;;;;;;5072231;28;20402;-35
2023/06/23 06:14:01;;;;;;;;;;;17.80;91.60;;;;;;5072169;28;19909;-35
2023/06/23 06:16:28;;;;;;;;;;;17.90;91.60;;;;;;5072149;28;19916;-34
2023/06/23 06:18:54;;;;;;;;;;;17.90;91.40;;;;;;5072138;28;19932;-35
2023/06/23 06:21:21;;;;;;;;;;;18.00;91.60;;;;;;5072147;28;19974;-36
2023/06/23 06:23:47;;;;;;;;;;;18.10;91.20;;;;;;5072059;28;19909;-35
2023/06/23 06:26:13;;;;;;;;;;;18.20;91.30;;;;;;5071803;28;19946;-35
2023/06/23 06:28:39;;;;;;;;;;;18.20;91.60;;;;;;5072153;28;19915;-38
2023/06/23 06:31:06;;;;;;;;;;;18.20;91.30;;;;;;5072088;28;19920;-36
2023/06/23 06:33:32;;;;;;;;;;;18.30;91.50;;;;;;5072119;28;20059;-33
2023/06/23 06:36:03;;;;;;;;;;;18.30;91.40;;;;;;5072316;28;19951;-36
2023/06/23 06:38:29;;;;;;;;;;;18.30;91.40;;;;;;5054095;28;19999;-35
2023/06/23 06:40:55;;;;;;;;;;;18.40;91.30;;;;;;5053926;28;19913;-37
2023/06/23 06:43:20;;;;;;;;;;;18.40;91.30;;;;;;5071847;28;19978;-37
2023/06/23 06:45:46;;;;;;;;;;;18.50;91.10;;;;;;5071890;28;19909;-45
2023/06/23 06:48:12;;;;;;;;;;;18.50;91.10;;;;;;5071998;28;19915;-35
2023/06/23 06:50:38;;;;;;;;;;;18.60;91.00;;;;;;5071752;28;19913;-36
2023/06/23 06:53:04;;;;;;;;;;;18.70;90.90;;;;;;5071904;28;20021;-34
2023/06/23 06:55:31;;;;;;;;;;;18.80;90.90;;;;;;5071873;28;19978;-35
2023/06/23 06:57:57;;;;;;;;;;;18.80;90.90;;;;;;5071835;28;19977;-35
2023/06/23 07:00:22;;;;;;;;;;;18.90;90.90;;;;;;5072017;28;19909;-36
2023/06/23 07:02:48;;;;;;;;;;;18.90;90.70;;;;;;5071512;28;19909;-36
2023/06/23 07:05:16;;;;;;;;;;;18.90;90.70;;;;;;5071200;28;19909;-36
2023/06/23 07:07:42;;;;;;;;;;;18.90;90.70;;;;;;5071588;28;19908;-37
2023/06/23 07:10:08;;;;;;;;;;;18.90;90.70;;;;;;5071652;28;20383;-35
2023/06/23 07:12:33;;;;;;;;;;;18.90;90.60;;;;;;5071517;28;19908;-37
2023/06/23 07:14:59;;;;;;;;;;;19.00;90.60;;;;;;5071631;28;19908;-35
2023/06/23 07:17:24;;;;;;;;;;;19.00;90.50;;;;;;5071702;28;19916;-35
2023/06/23 07:19:50;;;;;;;;;;;19.00;90.50;;;;;;5071638;28;20018;-38
2023/06/23 07:22:16;;;;;;;;;;;19.10;90.60;;;;;;5071633;28;19919;-36
2023/06/23 07:24:42;;;;;;;;;;;19.10;90.50;;;;;;5071435;28;20375;-38
2023/06/23 07:27:08;;;;;;;;;;;19.20;90.40;;;;;;5071537;28;19919;-35
2023/06/23 07:29:34;;;;;;;;;;;19.20;90.30;;;;;;5071559;28;19912;-37
2023/06/23 07:32:01;;;;;;;;;;;19.30;90.30;;;;;;5071215;28;19909;-36
2023/06/23 07:34:29;;;;;;;;;;;19.30;90.30;;;;;;5071438;28;19909;-36
2023/06/23 07:36:55;;;;;;;;;;;19.40;90.20;;;;;;5071561;28;20252;-37
2023/06/23 07:39:20;;;;;;;;;;;19.40;90.10;;;;;;5073404;28;20391;-36
2023/06/23 07:41:46;;;;;;;;;;;19.50;90.10;;;;;;5075058;28;19999;-35
2023/06/23 07:44:11;;;;;;;;;;;19.50;90.00;;;;;;5075076;28;19917;-37
2023/06/23 07:46:37;;;;;;;;;;;19.60;89.80;;;;;;5056532;28;20403;-36
2023/06/23 07:49:02;;;;;;;;;;;19.60;89.70;;;;;;5074866;28;19965;-36
2023/06/23 07:51:28;;;;;;;;;;;19.70;89.70;;;;;;5074894;28;19915;-35
2023/06/23 07:53:55;;;;;;;;;;;19.70;89.50;;;;;;5075177;28;19970;-37
2023/06/23 07:56:20;;;;;;;;;;;19.80;89.40;;;;;;5074659;28;19914;-44
2023/06/23 07:58:46;;;;;;;;;;;19.80;89.20;;;;;;5074726;28;20249;-36
2023/06/23 08:01:12;;;;;;;;;;;19.80;89.10;;;;;;5074720;28;19909;-37
2023/06/23 08:03:38;;;;;;;;;;;19.90;88.90;;;;;;5074538;28;19908;-36
2023/06/23 08:06:03;;;;;;;;;;;19.90;88.90;;;;;;5074491;28;19920;-37
2023/06/23 08:08:28;;;;;;;;;;;19.90;88.70;;;;;;5074428;28;20368;-35
2023/06/23 08:10:54;;;;;;;;;;;20.00;88.60;;;;;;5074578;28;19912;-37
2023/06/23 08:13:19;;;;;;;;;;;20.00;88.50;;;;;;5074641;28;20327;-36
2023/06/23 08:15:46;;;;;;;;;;;20.10;88.40;;;;;;5074700;28;19908;-37
2023/06/23 08:18:12;;;;;;;;;;;20.20;88.30;;;;;;5074481;28;19915;-37
2023/06/23 08:20:38;;;;;;;;;;;20.20;88.10;;;;;;5074447;28;19954;-36
2023/06/23 08:23:03;;;;;;;;;;;20.20;88.00;;;;;;5074202;28;19958;-37
2023/06/23 08:25:29;;;;;;;;;;;20.30;88.00;;;;;;5074155;28;19920;-37
2023/06/23 08:27:54;;;;;;;;;;;20.30;87.60;;;;;;5074310;28;19993;-37
2023/06/23 08:30:28;;;;;;;;;;;20.40;87.50;;;;;;5074036;28;19958;-35
2023/06/23 08:32:54;;;;;;;;;;;20.40;87.30;;;;;;5074118;28;20007;-37
2023/06/23 08:35:19;;;;;;;;;;;20.40;87.30;;;;;;5055923;28;20009;-36
2023/06/23 08:37:45;;;;;;;;;;;20.50;87.20;;;;;;5073967;28;19909;-36
2023/06/23 08:40:11;;;;;;;;;;;20.50;87.00;;;;;;5074055;28;20409;-36
2023/06/23 08:42:36;;;;;;;;;;;20.50;86.80;;;;;;5073873;28;19935;-35
2023/06/23 08:45:05;;;;;;;;;;;20.50;86.70;;;;;;5055867;28;19909;-36
2023/06/23 08:47:31;;;;;;;;;;;20.60;86.20;;;;;;5073805;28;19948;-37
2023/06/23 08:49:57;;;;;;;;;;;20.60;86.20;;;;;;5073354;28;19913;-34
2023/06/23 08:52:23;;;;;;;;;;;20.70;85.90;;;;;;5073700;28;19908;-41
2023/06/23 08:54:49;;;;;;;;;;;20.70;85.70;;;;;;5073648;28;19909;-36
2023/06/23 08:57:15;;;;;;;;;;;20.70;85.10;;;;;;5073695;28;20398;-38
2023/06/23 08:59:40;;;;;;;;;;;20.70;84.90;;;;;;5073465;28;20006;-36
2023/06/23 09:02:06;;;;;;;;;;;20.70;84.30;;;;;;5073427;28;19915;-36
2023/06/23 09:04:31;;;;;;;;;;;20.80;84.30;;;;;;5055575;28;19927;-36
2023/06/23 09:06:58;;;;;;;;;;;20.90;83.60;;;;;;5055518;28;20363;-36
2023/06/23 09:09:25;;;;;;;;;;;20.90;83.70;;;;;;5073327;28;19965;-36
2023/06/23 09:11:51;;;;;;;;;;;20.90;83.30;;;;;;5073283;28;19994;-34
2023/06/23 09:14:17;;;;;;;;;;;20.90;83.20;;;;;;5073229;28;20029;-37
2023/06/23 09:16:42;;;;;;;;;;;21.00;83.10;;;;;;5073814;28;19955;-36
2023/06/23 09:19:09;;;;;;;;;;;21.00;82.20;;;;;;5073325;28;20001;-36
2023/06/23 09:21:35;;;;;;;;;;;21.10;82.90;;;;;;5073426;28;19912;-36
2023/06/23 09:24:03;;;;;;;;;;;21.10;83.20;;;;;;5073020;28;19908;-41
2023/06/23 09:26:29;;;;;;;;;;;21.20;82.40;;;;;;5072937;28;19928;-37
2023/06/23 09:29:13;;;;;;;;;;;21.20;82.20;;;;;;5072776;28;19923;-36
2023/06/23 09:31:39;;;;;;;;;;;21.30;82.70;;;;;;5073049;28;19916;-36
2023/06/23 09:34:05;;;;;;;;;;;21.30;81.40;;;;;;5072896;28;19916;-36
2023/06/23 09:36:35;;;;;;;;;;;21.40;81.60;;;;;;5073042;28;19977;-41
2023/06/23 09:39:01;;;;;;;;;;;21.40;81.10;;;;;;5072713;28;20368;-36
2023/06/23 09:41:31;;;;;;;;;;;21.40;80.90;;;;;;5072780;28;19909;-37
2023/06/23 09:43:57;;;;;;;;;;;21.50;81.00;;;;;;5072673;28;20364;-38
2023/06/23 09:46:26;;;;;;;;;;;21.60;80.30;;;;;;5072736;28;20368;-36
2023/06/23 09:48:52;;;;;;;;;;;21.60;80.20;;;;;;5072472;28;19952;-36
2023/06/23 09:51:20;;;;;;;;;;;21.70;80.30;;;;;;5072429;28;20356;-40
2023/06/23 09:53:47;;;;;;;;;;;21.80;79.90;;;;;;5072574;28;19908;-38
2023/06/23 09:56:17;;;;;;;;;;;21.90;79.40;;;;;;5072554;28;19992;-35
2023/06/23 09:58:43;;;;;;;;;;;22.00;79.30;;;;;;5054538;28;19996;-35
2023/06/23 10:01:10;;;;;;;;;;;22.10;79.20;;;;;;5071933;28;19909;-35
2023/06/23 10:03:49;;;;;;;;;;;22.10;78.80;;;;;;5054494;28;19920;-35
2023/06/23 10:06:27;;;;;;;;;;;22.20;78.30;;;;;;5072327;28;19913;-36
2023/06/23 10:08:54;;;;;;;;;;;22.10;77.30;;;;;;5072229;28;19912;-36
2023/06/23 10:11:20;;;;;;;;;;;22.20;77.70;;;;;;5072234;28;20290;-35
2023/06/23 10:13:46;;;;;;;;;;;22.20;77.40;;;;;;5071939;28;19914;-36
2023/06/23 10:16:12;;;;;;;;;;;22.20;73.10;;;;;;5054172;28;19995;-36
2023/06/23 10:18:37;;;;;;;;;;;22.30;75.40;;;;;;5072241;28;19912;-37
2023/06/23 10:21:03;;;;;;;;;;;22.30;75.60;;;;;;5072296;28;20367;-35
2023/06/23 10:23:29;;;;;;;;;;;22.40;75.90;;;;;;5072255;28;19908;-36
2023/06/23 10:25:56;;;;;;;;;;;22.50;75.70;;;;;;5071782;28;19924;-36
2023/06/23 10:28:22;;;;;;;;;;;22.50;75.40;;;;;;5072339;28;20062;-36
2023/06/23 10:30:48;;;;;;;;;;;22.60;75.20;;;;;;5072048;28;20014;-35
2023/06/23 10:33:17;;;;;;;;;;;22.60;74.70;;;;;;5072140;28;19912;-35
2023/06/23 10:35:44;;;;;;;;;;;22.70;75.00;;;;;;5072200;28;19966;-35
2023/06/23 10:38:12;;;;;;;;;;;22.80;74.80;;;;;;5072294;28;19912;-35
2023/06/23 10:40:38;;;;;;;;;;;22.80;74.50;;;;;;5071981;28;19916;-36
2023/06/23 10:43:05;;;;;;;;;;;22.90;74.40;;;;;;5071895;28;19918;-35
2023/06/23 10:45:31;;;;;;;;;;;22.90;74.40;;;;;;5054023;28;19912;-37
2023/06/23 10:47:57;;;;;;;;;;;23.00;74.50;;;;;;5054027;28;20304;-36
2023/06/23 10:50:22;;;;;;;;;;;23.10;73.20;;;;;;5071884;28;20449;-34
2023/06/23 10:52:48;;;;;;;;;;;23.10;72.60;;;;;;5071918;28;19913;-35
2023/06/23 10:55:32;;;;;;;;;;;23.20;72.50;;;;;;5054001;28;19923;-34
2023/06/23 10:58:11;;;;;;;;;;;23.20;72.60;;;;;;5053706;28;19919;-35
2023/06/23 11:00:37;;;;;;;;;;;23.20;72.30;;;;;;5071779;28;19913;-36
2023/06/23 11:03:05;;;;;;;;;;;23.30;72.50;;;;;;5071985;28;19913;-36
2023/06/23 11:05:31;;;;;;;;;;;23.30;71.50;;;;;;5071940;28;19939;-35
2023/06/23 11:08:00;;;;;;;;;;;23.40;70.40;;;;;;5071619;28;19913;-36
2023/06/23 11:10:45;;;;;;;;;;;23.50;70.10;;;;;;5071708;28;19954;-35
2023/06/23 11:13:14;;;;;;;;;;;23.50;69.70;;;;;;5071918;28;19912;-36
2023/06/23 11:15:40;;;;;;;;;;;23.60;69.80;;;;;;5075608;28;20343;-35
2023/06/23 11:18:05;;;;;;;;;;;23.60;69.20;;;;;;5075539;28;19916;-38
2023/06/23 11:20:32;;;;;;;;;;;23.70;68.20;;;;;;5075433;28;19961;-38
2023/06/23 11:22:58;;;;;;;;;;;23.70;68.20;;;;;;5075374;28;19934;-36
2023/06/23 11:25:32;;;;;;;;;;;23.90;68.80;;;;;;5075378;28;19964;-35
2023/06/23 11:28:16;;;;;;;;;;;23.90;67.70;;;;;;5075239;28;19912;-35
2023/06/23 11:30:52;;;;;;;;;;;24.10;66.50;;;;;;5075043;28;20005;-36
2023/06/23 11:33:31;;;;;;;;;;;24.10;66.30;;;;;;5075144;28;19908;-36
2023/06/23 11:36:03;;;;;;;;;;;24.10;65.70;;;;;;5075176;28;19908;-36
2023/06/23 11:38:30;;;;;;;;;;;24.20;65.10;;;;;;5057150;28;19916;-37
2023/06/23 11:40:57;;;;;;;;;;;24.30;65.30;;;;;;5075328;28;20026;-36
2023/06/23 11:43:23;;;;;;;;;;;24.30;65.30;;;;;;5074983;28;20370;-41
2023/06/23 11:45:52;;;;;;;;;;;24.40;64.00;;;;;;5074927;28;20269;-35
2023/06/23 11:48:18;;;;;;;;;;;24.50;64.70;;;;;;5074944;28;19948;-36
2023/06/23 11:50:43;;;;;;;;;;;24.60;64.30;;;;;;5074918;28;19952;-35
2023/06/23 11:53:09;;;;;;;;;;;24.60;63.50;;;;;;5074833;28;19995;-38
2023/06/23 11:55:35;;;;;;;;;;;24.60;63.30;;;;;;5074870;28;19913;-41
2023/06/23 11:58:01;;;;;;;;;;;24.70;63.50;;;;;;5075143;28;19938;-37
2023/06/23 12:00:26;;;;;;;;;;;24.80;63.30;;;;;;5074916;28;19910;-36
2023/06/23 12:02:52;;;;;;;;;;;24.90;63.50;;;;;;5074761;28;19908;-34
2023/06/23 12:05:17;;;;;;;;;;;25.00;62.10;;;;;;5074570;28;19908;-36
2023/06/23 12:07:43;;;;;;;;;;;25.10;61.80;;;;;;5074691;28;19915;-35
2023/06/23 12:10:08;;;;;;;;;;;25.20;61.40;;;;;;5074318;28;20406;-35
2023/06/23 12:12:34;;;;;;;;;;;25.20;60.80;;;;;;5056636;28;20399;-34
2023/06/23 12:15:00;;;;;;;;;;;25.20;61.20;;;;;;5074445;28;20368;-39
2023/06/23 12:17:25;;;;;;;;;;;25.40;62.20;;;;;;5074590;28;19909;-36
2023/06/23 12:19:51;;;;;;;;;;;25.40;61.20;;;;;;5074432;28;19915;-35
2023/06/23 12:22:17;;;;;;;;;;;25.60;61.20;;;;;;5074322;28;19909;-35
2023/06/23 12:24:43;;;;;;;;;;;25.50;61.10;;;;;;5073780;28;19994;-35
2023/06/23 12:27:12;;;;;;;;;;;25.60;61.30;;;;;;5074188;28;19943;-38
2023/06/23 12:29:38;;;;;;;;;;;25.70;61.10;;;;;;5074067;28;19922;-38
2023/06/23 12:32:04;;;;;;;;;;;25.70;61.00;;;;;;5074358;28;19912;-35
2023/06/23 12:34:33;;;;;;;;;;;25.80;59.20;;;;;;5074192;28;19908;-40
2023/06/23 12:37:06;;;;;;;;;;;25.90;59.90;;;;;;5074224;28;19931;-37
2023/06/23 12:39:33;;;;;;;;;;;26.10;59.50;;;;;;5074358;28;19909;-36
2023/06/23 12:41:58;;;;;;;;;;;26.10;59.10;;;;;;5056023;28;20431;-36
2023/06/23 12:44:26;;;;;;;;;;;26.20;59.10;;;;;;5074073;28;19960;-35
2023/06/23 12:46:54;;;;;;;;;;;26.20;59.20;;;;;;5073986;28;20351;-36
2023/06/23 12:49:27;;;;;;;;;;;26.10;59.30;;;;;;5073933;28;19912;-35
2023/06/23 12:51:52;;;;;;;;;;;26.10;59.50;;;;;;5073844;28;19908;-35
2023/06/23 12:54:18;;;;;;;;;;;26.10;59.50;;;;;;5073906;28;19915;-35
2023/06/23 12:56:43;;;;;;;;;;;26.20;59.20;;;;;;5073712;28;19938;-39
2023/06/23 12:59:09;;;;;;;;;;;26.30;59.10;;;;;;5073625;28;20261;-36
2023/06/23 13:01:35;;;;;;;;;;;26.40;59.30;;;;;;5073668;28;20372;-36
2023/06/23 13:04:01;;;;;;;;;;;26.60;59.50;;;;;;5073441;28;19908;-37
2023/06/23 13:06:26;;;;;;;;;;;26.80;59.60;;;;;;5073559;28;20284;-35
2023/06/23 13:08:52;;;;;;;;;;;26.90;58.80;;;;;;5073802;28;19955;-36
2023/06/23 13:11:18;;;;;;;;;;;27.00;58.30;;;;;;5073398;28;19909;-33
2023/06/23 13:13:44;;;;;;;;;;;27.00;57.80;;;;;;5073288;28;20322;-35
2023/06/23 13:16:09;;;;;;;;;;;27.10;57.70;;;;;;5073084;28;20367;-38
2023/06/23 13:18:35;;;;;;;;;;;27.10;57.70;;;;;;5073196;28;19999;-33
2023/06/23 13:21:00;;;;;;;;;;;27.10;56.90;;;;;;5073442;28;19916;-36
2023/06/23 13:23:26;;;;;;;;;;;27.00;57.10;;;;;;5072860;28;19913;-35
2023/06/23 13:25:51;;;;;;;;;;;27.10;57.60;;;;;;5072760;28;20337;-33
2023/06/23 13:28:19;;;;;;;;;;;27.10;57.50;;;;;;5072103;28;20863;-37
2023/06/23 13:30:44;;;;;;;;;;;27.30;57.60;;;;;;5072886;28;20023;-37
2023/06/23 13:33:10;;;;;;;;;;;27.40;57.50;;;;;;5073210;28;19920;-38
2023/06/23 13:35:35;;;;;;;;;;;27.50;57.70;;;;;;5072521;28;19919;-37
2023/06/23 13:38:02;;;;;;;;;;;27.60;57.40;;;;;;5072277;28;19913;-38
2023/06/23 13:40:27;;;;;;;;;;;27.70;56.60;;;;;;5072794;28;20155;-38
2023/06/23 13:42:53;;;;;;;;;;;27.70;55.70;;;;;;5072767;28;20035;-37
2023/06/23 13:45:18;;;;;;;;;;;27.70;56.30;;;;;;5072693;28;20015;-38
2023/06/23 13:47:44;;;;;;;;;;;27.80;56.40;;;;;;5072720;28;19920;-36
2023/06/23 13:50:14;;;;;;;;;;;27.90;56.40;;;;;;5072501;28;19916;-38
2023/06/23 13:52:40;;;;;;;;;;;27.90;55.70;;;;;;5072577;28;20027;-36
2023/06/23 13:55:10;;;;;;;;;;;28.00;55.80;;;;;;5054711;28;20387;-36
2023/06/23 13:57:36;;;;;;;;;;;28.00;55.40;;;;;;5072604;28;19912;-38
2023/06/23 14:00:04;;;;;;;;;;;28.10;55.60;;;;;;5072454;28;19917;-40
2023/06/23 14:02:30;;;;;;;;;;;28.10;55.10;;;;;;5072327;28;19912;-29
2023/06/23 14:04:55;;;;;;;;;;;28.10;55.20;;;;;;5072387;28;19920;-29
2023/06/23 14:07:21;;;;;;;;;;;28.20;55.40;;;;;;5072377;28;20058;-31
2023/06/23 14:09:47;;;;;;;;;;;28.30;55.50;;;;;;5072236;28;19918;-32
2023/06/23 14:12:12;;;;;;;;;;;28.30;54.00;;;;;;5072163;28;19913;-33
2023/06/23 14:14:38;;;;;;;;;;;28.30;53.90;;;;;;5072312;28;20054;-30